sensor_id;sensor_type;location;lat;lon;timestamp;temperature;humidity
1383;DHT22;685;47.196;11.880;2023-04-15T00:01:36;4.60;99.90
1383;DHT22;685;47.196;11.880;2023-04-15T00:04:03;4.70;99.90
1383;DHT22;685;47.196;11.880;2023-04-15T00:06:30;4.80;99.90
1383;DHT22;685;47.196;11.880;2023-04-15T00:08:57;4.80;99.90
1383;DHT22;685;47.196;11.880;2023-04-15T00:11:25;4.80;99.90
1383;DHT22;685;47.196;11.880;2023-04-15T00:13:52;4.70;99.90
1383;DHT22;685;47.196;11.880;2023-04-15T00:16:19;4.80;99.90
1383;DHT22;685;47.196;11.880;2023-04-15T00:18:46;4.80;99.90
1383;DHT22;685;47.196;11.880;2023-04-15T00:21:13;4.90;99.90
1383;DHT22;685;47.196;11.880;2023-04-15T00:23:40;4.90;99.90
1383;DHT22;685;47.196;11.880;2023-04-15T00:26:07;4.80;99.90
1383;DHT22;685;47.196;11.880;2023-04-15T00:28:35;4.70;99.90
1383;DHT22;685;47.196;11.880;2023-04-15T00:31:03;4.70;99.90
1383;DHT22;685;47.196;11.880;2023-04-15T00:33:30;4.60;99.90
1383;DHT22;685;47.196;11.880;2023-04-15T00:35:57;4.70;99.90
1383;DHT22;685;47.196;11.880;2023-04-15T00:38:24;4.70;99.90
1383;DHT22;685;47.196;11.880;2023-04-15T00:40:51;4.80;99.90
1383;DHT22;685;47.196;11.880;2023-04-15T00:43:18;4.90;99.90
1383;DHT22;685;47.196;11.880;2023-04-15T00:45:46;4.90;99.90
1383;DHT22;685;47.196;11.880;2023-04-15T00:48:13;4.90;99.90
1383;DHT22;685;47.196;11.880;2023-04-15T00:50:42;4.80;99.90
1383;DHT22;685;47.196;11.880;2023-04-15T00:53:08;4.90;99.90
1383;DHT22;685;47.196;11.880;2023-04-15T00:55:36;4.90;99.90
1383;DHT22;685;47.196;11.880;2023-04-15T00:58:03;4.90;99.90
1383;DHT22;685;47.196;11.880;2023-04-15T01:00:30;4.90;99.90
1383;DHT22;685;47.196;11.880;2023-04-15T01:02:59;4.90;99.90
1383;DHT22;685;47.196;11.880;2023-04-15T01:05:26;4.90;99.90
1383;DHT22;685;47.196;11.880;2023-04-15T01:07:54;5.00;99.90
1383;DHT22;685;47.196;11.880;2023-04-15T01:10:21;5.00;99.90
1383;DHT22;685;47.196;11.880;2023-04-15T01:12:48;4.90;99.90
1383;DHT22;685;47.196;11.880;2023-04-15T01:15:16;5.00;99.90
1383;DHT22;685;47.196;11.880;2023-04-15T01:17:43;5.00;99.90
1383;DHT22;685;47.196;11.880;2023-04-15T01:20:12;5.00;99.90
1383;DHT22;685;47.196;11.880;2023-04-15T01:22:40;5.00;99.90
1383;DHT22;685;47.196;11.880;2023-04-15T01:25:10;4.90;99.90
1383;DHT22;685;47.196;11.880;2023-04-15T01:27:40;4.80;99.90
1383;DHT22;685;47.196;11.880;2023-04-15T01:30:09;4.60;99.90
1383;DHT22;685;47.196;11.880;2023-04-15T01:32:36;4.70;99.90
1383;DHT22;685;47.196;11.880;2023-04-15T01:35:03;4.90;99.90
1383;DHT22;685;47.196;11.880;2023-04-15T01:37:31;4.90;99.90
1383;DHT22;685;47.196;11.880;2023-04-15T01:39:58;4.80;99.90
1383;DHT22;685;47.196;11.880;2023-04-15T01:42:25;4.60;99.90
1383;DHT22;685;47.196;11.880;2023-04-15T01:44:54;4.50;99.90
1383;DHT22;685;47.196;11.880;2023-04-15T01:47:21;4.40;99.90
1383;DHT22;685;47.196;11.880;2023-04-15T01:49:48;4.40;99.90
1383;DHT22;685;47.196;11.880;2023-04-15T01:52:17;4.40;99.90
1383;DHT22;685;47.196;11.880;2023-04-15T01:54:44;4.60;99.90
1383;DHT22;685;47.196;11.880;2023-04-15T01:57:11;4.70;99.90
1383;DHT22;685;47.196;11.880;2023-04-15T01:59:38;4.70;99.90
1383;DHT22;685;47.196;11.880;2023-04-15T02:02:07;4.70;99.90
1383;DHT22;685;47.196;11.880;2023-04-15T02:04:34;4.80;99.90
1383;DHT22;685;47.196;11.880;2023-04-15T02:07:00;4.80;99.90
1383;DHT22;685;47.196;11.880;2023-04-15T02:09:27;4.80;99.90
1383;DHT22;685;47.196;11.880;2023-04-15T02:11:54;4.70;99.90
1383;DHT22;685;47.196;11.880;2023-04-15T02:14:21;4.80;99.90
1383;DHT22;685;47.196;11.880;2023-04-15T02:16:48;4.70;99.90
1383;DHT22;685;47.196;11.880;2023-04-15T02:19:16;4.60;99.90
1383;DHT22;685;47.196;11.880;2023-04-15T02:21:43;4.50;99.90
1383;DHT22;685;47.196;11.880;2023-04-15T02:24:10;4.50;99.90
1383;DHT22;685;47.196;11.880;2023-04-15T02:26:37;4.60;99.90
1383;DHT22;685;47.196;11.880;2023-04-15T02:29:04;4.70;99.90
1383;DHT22;685;47.196;11.880;2023-04-15T02:31:31;4.70;99.90
1383;DHT22;685;47.196;11.880;2023-04-15T02:34:01;4.80;99.90
1383;DHT22;685;47.196;11.880;2023-04-15T02:36:30;4.80;99.90
1383;DHT22;685;47.196;11.880;2023-04-15T02:38:59;4.70;99.90
1383;DHT22;685;47.196;11.880;2023-04-15T02:41:26;4.70;99.90
1383;DHT22;685;47.196;11.880;2023-04-15T02:43:53;4.70;99.90
1383;DHT22;685;47.196;11.880;2023-04-15T02:46:20;4.80;99.90
1383;DHT22;685;47.196;11.880;2023-04-15T02:48:47;4.80;99.90
1383;DHT22;685;47.196;11.880;2023-04-15T02:51:15;4.80;99.90
1383;DHT22;685;47.196;11.880;2023-04-15T02:53:45;4.80;99.90
1383;DHT22;685;47.196;11.880;2023-04-15T02:56:13;4.80;99.90
1383;DHT22;685;47.196;11.880;2023-04-15T02:58:42;4.70;99.90
1383;DHT22;685;47.196;11.880;2023-04-15T03:01:10;4.50;99.90
1383;DHT22;685;47.196;11.880;2023-04-15T03:03:37;4.50;99.90
1383;DHT22;685;47.196;11.880;2023-04-15T03:06:04;4.50;99.90
1383;DHT22;685;47.196;11.880;2023-04-15T03:08:31;4.70;99.90
1383;DHT22;685;47.196;11.880;2023-04-15T03:10:59;4.70;99.90
1383;DHT22;685;47.196;11.880;2023-04-15T03:13:27;4.80;99.90
1383;DHT22;685;47.196;11.880;2023-04-15T03:15:54;4.80;99.90
1383;DHT22;685;47.196;11.880;2023-04-15T03:18:21;4.40;99.90
1383;DHT22;685;47.196;11.880;2023-04-15T03:20:48;4.30;99.90
1383;DHT22;685;47.196;11.880;2023-04-15T03:23:15;4.10;99.90
1383;DHT22;685;47.196;11.880;2023-04-15T03:25:43;4.20;99.90
1383;DHT22;685;47.196;11.880;2023-04-15T03:28:11;4.30;99.90
1383;DHT22;685;47.196;11.880;2023-04-15T03:30:38;4.20;99.90
1383;DHT22;685;47.196;11.880;2023-04-15T03:33:05;4.20;99.90
1383;DHT22;685;47.196;11.880;2023-04-15T03:35:33;4.30;99.90
1383;DHT22;685;47.196;11.880;2023-04-15T03:38:00;4.40;99.90
1383;DHT22;685;47.196;11.880;2023-04-15T03:40:26;4.50;99.90
1383;DHT22;685;47.196;11.880;2023-04-15T03:42:53;4.50;99.90
1383;DHT22;685;47.196;11.880;2023-04-15T03:45:22;4.50;99.90
1383;DHT22;685;47.196;11.880;2023-04-15T03:47:49;4.60;99.90
1383;DHT22;685;47.196;11.880;2023-04-15T03:50:16;4.60;99.90
1383;DHT22;685;47.196;11.880;2023-04-15T03:52:43;4.60;99.90
1383;DHT22;685;47.196;11.880;2023-04-15T03:55:10;4.50;99.90
1383;DHT22;685;47.196;11.880;2023-04-15T03:57:37;4.50;99.90
1383;DHT22;685;47.196;11.880;2023-04-15T04:00:05;4.60;99.90
1383;DHT22;685;47.196;11.880;2023-04-15T04:02:33;4.60;99.90
1383;DHT22;685;47.196;11.880;2023-04-15T04:05:00;4.60;99.90
1383;DHT22;685;47.196;11.880;2023-04-15T04:07:27;4.60;99.90
1383;DHT22;685;47.196;11.880;2023-04-15T04:09:56;4.70;99.90
1383;DHT22;685;47.196;11.880;2023-04-15T04:12:23;4.60;99.90
1383;DHT22;685;47.196;11.880;2023-04-15T04:14:49;4.70;99.90
1383;DHT22;685;47.196;11.880;2023-04-15T04:17:16;4.70;99.90
1383;DHT22;685;47.196;11.880;2023-04-15T04:19:45;4.60;99.90
1383;DHT22;685;47.196;11.880;2023-04-15T04:22:12;4.70;99.90
1383;DHT22;685;47.196;11.880;2023-04-15T04:24:38;4.80;99.90
1383;DHT22;685;47.196;11.880;2023-04-15T04:27:05;4.80;99.90
1383;DHT22;685;47.196;11.880;2023-04-15T04:29:32;4.80;99.90
1383;DHT22;685;47.196;11.880;2023-04-15T04:31:59;4.80;99.90
1383;DHT22;685;47.196;11.880;2023-04-15T04:34:26;4.70;99.90
1383;DHT22;685;47.196;11.880;2023-04-15T04:36:54;4.50;99.90
1383;DHT22;685;47.196;11.880;2023-04-15T04:39:21;4.50;99.90
1383;DHT22;685;47.196;11.880;2023-04-15T04:41:48;4.40;99.90
1383;DHT22;685;47.196;11.880;2023-04-15T04:44:16;4.40;99.90
1383;DHT22;685;47.196;11.880;2023-04-15T04:46:43;4.40;99.90
1383;DHT22;685;47.196;11.880;2023-04-15T04:49:10;4.30;99.90
1383;DHT22;685;47.196;11.880;2023-04-15T04:51:37;4.40;99.90
1383;DHT22;685;47.196;11.880;2023-04-15T04:54:05;4.40;99.90
1383;DHT22;685;47.196;11.880;2023-04-15T04:56:32;4.50;99.90
1383;DHT22;685;47.196;11.880;2023-04-15T04:59:00;4.60;99.90
1383;DHT22;685;47.196;11.880;2023-04-15T05:01:27;4.60;99.90
1383;DHT22;685;47.196;11.880;2023-04-15T05:03:54;4.70;99.90
1383;DHT22;685;47.196;11.880;2023-04-15T05:06:21;4.80;99.90
1383;DHT22;685;47.196;11.880;2023-04-15T05:08:48;4.80;99.90
1383;DHT22;685;47.196;11.880;2023-04-15T05:11:16;4.70;99.90
1383;DHT22;685;47.196;11.880;2023-04-15T05:13:43;4.70;99.90
1383;DHT22;685;47.196;11.880;2023-04-15T05:16:10;4.70;99.90
1383;DHT22;685;47.196;11.880;2023-04-15T05:18:37;4.70;99.90
1383;DHT22;685;47.196;11.880;2023-04-15T05:21:04;4.80;99.90
1383;DHT22;685;47.196;11.880;2023-04-15T05:23:31;4.90;99.90
1383;DHT22;685;47.196;11.880;2023-04-15T05:25:58;5.00;99.90
1383;DHT22;685;47.196;11.880;2023-04-15T05:28:26;4.90;99.90
1383;DHT22;685;47.196;11.880;2023-04-15T05:30:53;4.80;99.90
1383;DHT22;685;47.196;11.880;2023-04-15T05:33:20;4.90;99.90
1383;DHT22;685;47.196;11.880;2023-04-15T05:35:47;4.90;99.90
1383;DHT22;685;47.196;11.880;2023-04-15T05:38:15;4.90;99.90
1383;DHT22;685;47.196;11.880;2023-04-15T05:40:41;4.90;99.90
1383;DHT22;685;47.196;11.880;2023-04-15T05:43:08;5.00;99.90
1383;DHT22;685;47.196;11.880;2023-04-15T05:45:37;5.00;99.90
1383;DHT22;685;47.196;11.880;2023-04-15T05:48:03;5.10;99.90
1383;DHT22;685;47.196;11.880;2023-04-15T05:50:30;5.10;99.90
1383;DHT22;685;47.196;11.880;2023-04-15T05:52:57;5.20;99.90
1383;DHT22;685;47.196;11.880;2023-04-15T05:55:24;5.10;99.90
1383;DHT22;685;47.196;11.880;2023-04-15T05:57:52;5.10;99.90
1383;DHT22;685;47.196;11.880;2023-04-15T06:00:18;5.10;99.90
1383;DHT22;685;47.196;11.880;2023-04-15T06:02:47;5.10;99.90
1383;DHT22;685;47.196;11.880;2023-04-15T06:05:14;5.20;99.90
1383;DHT22;685;47.196;11.880;2023-04-15T06:07:41;5.20;99.90
1383;DHT22;685;47.196;11.880;2023-04-15T06:10:09;5.10;99.90
1383;DHT22;685;47.196;11.880;2023-04-15T06:12:35;5.20;99.90
1383;DHT22;685;47.196;11.880;2023-04-15T06:15:03;5.20;99.90
1383;DHT22;685;47.196;11.880;2023-04-15T06:17:31;5.30;99.90
1383;DHT22;685;47.196;11.880;2023-04-15T06:19:59;5.30;99.90
1383;DHT22;685;47.196;11.880;2023-04-15T06:22:26;5.30;99.90
1383;DHT22;685;47.196;11.880;2023-04-15T06:24:53;5.30;99.90
1383;DHT22;685;47.196;11.880;2023-04-15T06:27:20;5.30;99.90
1383;DHT22;685;47.196;11.880;2023-04-15T06:29:47;5.30;99.90
1383;DHT22;685;47.196;11.880;2023-04-15T06:32:14;5.30;99.90
1383;DHT22;685;47.196;11.880;2023-04-15T06:34:41;5.40;99.90
1383;DHT22;685;47.196;11.880;2023-04-15T06:37:10;5.30;99.90
1383;DHT22;685;47.196;11.880;2023-04-15T06:39:40;5.40;99.90
1383;DHT22;685;47.196;11.880;2023-04-15T06:42:08;5.40;99.90
1383;DHT22;685;47.196;11.880;2023-04-15T06:44:35;5.50;99.90
1383;DHT22;685;47.196;11.880;2023-04-15T06:47:02;5.50;99.90
1383;DHT22;685;47.196;11.880;2023-04-15T06:49:29;5.60;99.90
1383;DHT22;685;47.196;11.880;2023-04-15T06:51:56;5.60;99.90
1383;DHT22;685;47.196;11.880;2023-04-15T06:54:25;5.60;99.90
1383;DHT22;685;47.196;11.880;2023-04-15T06:56:52;5.60;99.90
1383;DHT22;685;47.196;11.880;2023-04-15T06:59:18;5.70;99.90
1383;DHT22;685;47.196;11.880;2023-04-15T07:01:45;5.70;99.90
1383;DHT22;685;47.196;11.880;2023-04-15T07:04:12;5.60;99.90
1383;DHT22;685;47.196;11.880;2023-04-15T07:06:39;5.60;99.90
1383;DHT22;685;47.196;11.880;2023-04-15T07:09:06;5.60;99.90
1383;DHT22;685;47.196;11.880;2023-04-15T07:11:35;5.70;99.90
1383;DHT22;685;47.196;11.880;2023-04-15T07:14:02;5.80;99.90
1383;DHT22;685;47.196;11.880;2023-04-15T07:16:29;5.90;99.90
1383;DHT22;685;47.196;11.880;2023-04-15T07:18:56;5.90;99.90
1383;DHT22;685;47.196;11.880;2023-04-15T07:21:23;6.00;99.90
1383;DHT22;685;47.196;11.880;2023-04-15T07:23:50;6.00;99.90
1383;DHT22;685;47.196;11.880;2023-04-15T07:26:17;6.10;99.90
1383;DHT22;685;47.196;11.880;2023-04-15T07:28:45;6.20;99.90
1383;DHT22;685;47.196;11.880;2023-04-15T07:31:12;6.20;99.90
1383;DHT22;685;47.196;11.880;2023-04-15T07:33:39;6.20;99.90
1383;DHT22;685;47.196;11.880;2023-04-15T07:36:06;6.20;99.90
1383;DHT22;685;47.196;11.880;2023-04-15T07:38:33;6.20;99.90
1383;DHT22;685;47.196;11.880;2023-04-15T07:41:00;6.20;99.90
1383;DHT22;685;47.196;11.880;2023-04-15T07:43:28;6.30;99.90
1383;DHT22;685;47.196;11.880;2023-04-15T07:45:56;6.40;99.90
1383;DHT22;685;47.196;11.880;2023-04-15T07:48:23;6.50;99.90
1383;DHT22;685;47.196;11.880;2023-04-15T07:50:50;6.40;99.90
1383;DHT22;685;47.196;11.880;2023-04-15T07:53:17;6.50;99.90
1383;DHT22;685;47.196;11.880;2023-04-15T07:55:44;6.60;99.90
1383;DHT22;685;47.196;11.880;2023-04-15T07:58:11;6.60;99.90
1383;DHT22;685;47.196;11.880;2023-04-15T08:00:37;6.50;99.90
1383;DHT22;685;47.196;11.880;2023-04-15T08:03:06;6.60;99.90
1383;DHT22;685;47.196;11.880;2023-04-15T08:05:33;6.60;99.90
1383;DHT22;685;47.196;11.880;2023-04-15T08:08:00;6.60;99.90
1383;DHT22;685;47.196;11.880;2023-04-15T08:10:28;6.60;99.90
1383;DHT22;685;47.196;11.880;2023-04-15T08:12:56;6.70;99.90
1383;DHT22;685;47.196;11.880;2023-04-15T08:15:23;6.70;99.90
1383;DHT22;685;47.196;11.880;2023-04-15T08:17:49;6.70;99.90
1383;DHT22;685;47.196;11.880;2023-04-15T08:20:18;6.80;99.90
1383;DHT22;685;47.196;11.880;2023-04-15T08:22:45;6.70;99.90
1383;DHT22;685;47.196;11.880;2023-04-15T08:25:16;6.70;99.90
1383;DHT22;685;47.196;11.880;2023-04-15T08:27:43;6.80;99.90
1383;DHT22;685;47.196;11.880;2023-04-15T08:30:10;6.90;99.90
1383;DHT22;685;47.196;11.880;2023-04-15T08:32:37;7.00;99.90
1383;DHT22;685;47.196;11.880;2023-04-15T08:35:05;7.00;99.90
1383;DHT22;685;47.196;11.880;2023-04-15T08:37:33;7.00;99.90
1383;DHT22;685;47.196;11.880;2023-04-15T08:40:00;7.10;99.90
1383;DHT22;685;47.196;11.880;2023-04-15T08:42:30;7.10;99.90
1383;DHT22;685;47.196;11.880;2023-04-15T08:44:58;7.10;99.90
1383;DHT22;685;47.196;11.880;2023-04-15T08:47:29;7.10;99.90
1383;DHT22;685;47.196;11.880;2023-04-15T08:49:57;7.20;99.90
1383;DHT22;685;47.196;11.880;2023-04-15T08:52:24;7.10;99.90
1383;DHT22;685;47.196;11.880;2023-04-15T08:54:55;7.20;99.90
1383;DHT22;685;47.196;11.880;2023-04-15T08:57:24;7.30;99.90
1383;DHT22;685;47.196;11.880;2023-04-15T08:59:52;7.40;99.90
1383;DHT22;685;47.196;11.880;2023-04-15T09:02:19;7.50;99.90
1383;DHT22;685;47.196;11.880;2023-04-15T09:04:46;7.60;99.90
1383;DHT22;685;47.196;11.880;2023-04-15T09:07:13;7.60;99.90
1383;DHT22;685;47.196;11.880;2023-04-15T09:09:40;7.70;99.90
1383;DHT22;685;47.196;11.880;2023-04-15T09:12:10;7.80;99.90
1383;DHT22;685;47.196;11.880;2023-04-15T09:14:39;7.80;99.90
1383;DHT22;685;47.196;11.880;2023-04-15T09:17:09;7.90;99.90
1383;DHT22;685;47.196;11.880;2023-04-15T09:19:36;7.80;99.90
1383;DHT22;685;47.196;11.880;2023-04-15T09:22:03;7.70;99.90
1383;DHT22;685;47.196;11.880;2023-04-15T09:24:35;7.80;99.90
1383;DHT22;685;47.196;11.880;2023-04-15T09:27:03;8.00;99.90
1383;DHT22;685;47.196;11.880;2023-04-15T09:29:32;8.20;99.90
1383;DHT22;685;47.196;11.880;2023-04-15T09:32:09;8.30;99.90
1383;DHT22;685;47.196;11.880;2023-04-15T09:34:37;8.10;99.90
1383;DHT22;685;47.196;11.880;2023-04-15T09:37:03;8.20;99.90
1383;DHT22;685;47.196;11.880;2023-04-15T09:39:45;8.30;99.90
1383;DHT22;685;47.196;11.880;2023-04-15T09:42:13;8.30;99.90
1383;DHT22;685;47.196;11.880;2023-04-15T09:44:41;8.30;99.90
1383;DHT22;685;47.196;11.880;2023-04-15T09:47:09;8.20;99.90
1383;DHT22;685;47.196;11.880;2023-04-15T09:49:35;8.20;99.90
1383;DHT22;685;47.196;11.880;2023-04-15T09:52:02;8.20;99.90
1383;DHT22;685;47.196;11.880;2023-04-15T09:54:36;8.30;99.90
1383;DHT22;685;47.196;11.880;2023-04-15T09:57:05;8.30;99.90
1383;DHT22;685;47.196;11.880;2023-04-15T09:59:32;8.30;99.90
1383;DHT22;685;47.196;11.880;2023-04-15T10:02:03;8.40;99.90
1383;DHT22;685;47.196;11.880;2023-04-15T10:04:32;8.30;99.90
1383;DHT22;685;47.196;11.880;2023-04-15T10:07:02;8.20;99.90
1383;DHT22;685;47.196;11.880;2023-04-15T10:09:30;8.10;99.90
1383;DHT22;685;47.196;11.880;2023-04-15T10:11:59;7.90;99.90
1383;DHT22;685;47.196;11.880;2023-04-15T10:14:27;7.80;99.90
1383;DHT22;685;47.196;11.880;2023-04-15T10:17:01;7.70;99.90
1383;DHT22;685;47.196;11.880;2023-04-15T10:19:30;7.60;99.90
1383;DHT22;685;47.196;11.880;2023-04-15T10:21:59;7.60;99.90
1383;DHT22;685;47.196;11.880;2023-04-15T10:24:26;7.80;99.90
1383;DHT22;685;47.196;11.880;2023-04-15T10:26:53;7.80;99.90
1383;DHT22;685;47.196;11.880;2023-04-15T10:29:23;7.80;99.90
1383;DHT22;685;47.196;11.880;2023-04-15T10:31:52;7.80;99.90
1383;DHT22;685;47.196;11.880;2023-04-15T10:34:22;7.80;99.90
1383;DHT22;685;47.196;11.880;2023-04-15T10:36:49;7.80;99.90
1383;DHT22;685;47.196;11.880;2023-04-15T10:39:42;7.80;99.90
1383;DHT22;685;47.196;11.880;2023-04-15T10:42:10;7.80;99.90
1383;DHT22;685;47.196;11.880;2023-04-15T10:44:38;7.80;99.90
1383;DHT22;685;47.196;11.880;2023-04-15T10:47:09;7.80;99.90
1383;DHT22;685;47.196;11.880;2023-04-15T10:49:45;7.80;99.90
1383;DHT22;685;47.196;11.880;2023-04-15T10:52:14;7.90;99.90
1383;DHT22;685;47.196;11.880;2023-04-15T10:54:41;7.90;99.90
1383;DHT22;685;47.196;11.880;2023-04-15T10:57:13;7.80;99.90
1383;DHT22;685;47.196;11.880;2023-04-15T10:59:59;7.90;99.90
1383;DHT22;685;47.196;11.880;2023-04-15T11:02:38;8.00;99.90
1383;DHT22;685;47.196;11.880;2023-04-15T11:05:07;8.00;99.90
1383;DHT22;685;47.196;11.880;2023-04-15T11:07:38;8.00;99.90
1383;DHT22;685;47.196;11.880;2023-04-15T11:13:15;8.10;99.90
1383;DHT22;685;47.196;11.880;2023-04-15T11:15:43;8.20;99.90
1383;DHT22;685;47.196;11.880;2023-04-15T11:18:12;8.10;99.90
1383;DHT22;685;47.196;11.880;2023-04-15T11:20:41;8.20;99.90
1383;DHT22;685;47.196;11.880;2023-04-15T11:23:09;8.20;99.90
1383;DHT22;685;47.196;11.880;2023-04-15T11:25:37;8.20;99.90
1383;DHT22;685;47.196;11.880;2023-04-15T11:28:04;8.20;99.90
1383;DHT22;685;47.196;11.880;2023-04-15T11:30:33;8.20;99.90
1383;DHT22;685;47.196;11.880;2023-04-15T11:33:02;8.10;99.90
1383;DHT22;685;47.196;11.880;2023-04-15T11:35:29;8.10;99.90
1383;DHT22;685;47.196;11.880;2023-04-15T11:37:57;8.20;99.90
1383;DHT22;685;47.196;11.880;2023-04-15T11:40:29;8.30;99.90
1383;DHT22;685;47.196;11.880;2023-04-15T11:43:05;8.30;99.90
1383;DHT22;685;47.196;11.880;2023-04-15T11:45:32;8.30;99.90
1383;DHT22;685;47.196;11.880;2023-04-15T11:48:07;8.40;99.90
1383;DHT22;685;47.196;11.880;2023-04-15T11:50:34;8.30;99.90
1383;DHT22;685;47.196;11.880;2023-04-15T11:53:05;8.30;99.90
1383;DHT22;685;47.196;11.880;2023-04-15T11:55:41;8.30;99.90
1383;DHT22;685;47.196;11.880;2023-04-15T11:58:10;8.30;99.90
1383;DHT22;685;47.196;11.880;2023-04-15T12:00:38;8.40;99.90
1383;DHT22;685;47.196;11.880;2023-04-15T12:03:12;8.40;99.90
1383;DHT22;685;47.196;11.880;2023-04-15T12:06:04;8.50;99.90
1383;DHT22;685;47.196;11.880;2023-04-15T12:08:58;8.40;99.90
1383;DHT22;685;47.196;11.880;2023-04-15T12:11:34;8.40;99.90
1383;DHT22;685;47.196;11.880;2023-04-15T12:14:06;8.40;99.90
1383;DHT22;685;47.196;11.880;2023-04-15T12:16:34;8.50;99.90
1383;DHT22;685;47.196;11.880;2023-04-15T12:19:08;8.50;99.90
1383;DHT22;685;47.196;11.880;2023-04-15T12:21:36;8.60;99.90
1383;DHT22;685;47.196;11.880;2023-04-15T12:24:06;8.60;99.90
1383;DHT22;685;47.196;11.880;2023-04-15T12:26:35;8.70;99.90
1383;DHT22;685;47.196;11.880;2023-04-15T12:29:05;8.60;99.90
1383;DHT22;685;47.196;11.880;2023-04-15T12:31:33;8.50;99.90
1383;DHT22;685;47.196;11.880;2023-04-15T12:34:00;8.50;99.90
1383;DHT22;685;47.196;11.880;2023-04-15T12:36:28;8.40;99.90
1383;DHT22;685;47.196;11.880;2023-04-15T12:39:00;8.50;99.90
1383;DHT22;685;47.196;11.880;2023-04-15T12:41:29;8.50;99.90
1383;DHT22;685;47.196;11.880;2023-04-15T12:43:56;8.50;99.90
1383;DHT22;685;47.196;11.880;2023-04-15T12:46:23;8.50;99.90
1383;DHT22;685;47.196;11.880;2023-04-15T12:48:50;8.50;99.90
1383;DHT22;685;47.196;11.880;2023-04-15T12:51:18;8.60;99.90
1383;DHT22;685;47.196;11.880;2023-04-15T12:53:46;8.70;99.90
1383;DHT22;685;47.196;11.880;2023-04-15T12:56:14;8.70;99.90
1383;DHT22;685;47.196;11.880;2023-04-15T12:58:42;8.70;99.90
1383;DHT22;685;47.196;11.880;2023-04-15T13:01:09;8.70;99.90
1383;DHT22;685;47.196;11.880;2023-04-15T13:03:36;8.80;99.90
1383;DHT22;685;47.196;11.880;2023-04-15T13:06:03;8.80;99.90
1383;DHT22;685;47.196;11.880;2023-04-15T13:08:30;8.80;99.90
1383;DHT22;685;47.196;11.880;2023-04-15T13:10:57;8.70;99.90
1383;DHT22;685;47.196;11.880;2023-04-15T13:13:24;8.60;99.90
1383;DHT22;685;47.196;11.880;2023-04-15T13:15:53;8.70;99.90
1383;DHT22;685;47.196;11.880;2023-04-15T13:18:20;8.60;99.90
1383;DHT22;685;47.196;11.880;2023-04-15T13:20:48;8.70;99.90
1383;DHT22;685;47.196;11.880;2023-04-15T13:23:15;8.70;99.90
1383;DHT22;685;47.196;11.880;2023-04-15T13:25:42;8.70;99.90
1383;DHT22;685;47.196;11.880;2023-04-15T13:28:10;8.70;99.90
1383;DHT22;685;47.196;11.880;2023-04-15T13:30:37;8.70;99.90
1383;DHT22;685;47.196;11.880;2023-04-15T13:33:05;8.70;99.90
1383;DHT22;685;47.196;11.880;2023-04-15T13:35:32;8.70;99.90
1383;DHT22;685;47.196;11.880;2023-04-15T13:38:00;8.70;99.90
1383;DHT22;685;47.196;11.880;2023-04-15T13:40:27;8.70;99.90
1383;DHT22;685;47.196;11.880;2023-04-15T13:42:54;8.70;99.90
1383;DHT22;685;47.196;11.880;2023-04-15T13:45:21;8.60;99.90
1383;DHT22;685;47.196;11.880;2023-04-15T13:47:48;8.50;99.90
1383;DHT22;685;47.196;11.880;2023-04-15T13:50:17;8.40;99.90
1383;DHT22;685;47.196;11.880;2023-04-15T13:52:44;8.40;99.90
1383;DHT22;685;47.196;11.880;2023-04-15T13:55:11;8.30;99.90
1383;DHT22;685;47.196;11.880;2023-04-15T13:57:38;8.30;99.90
1383;DHT22;685;47.196;11.880;2023-04-15T14:00:06;8.30;99.90
1383;DHT22;685;47.196;11.880;2023-04-15T14:02:33;8.20;99.90
1383;DHT22;685;47.196;11.880;2023-04-15T14:05:00;8.20;99.90
1383;DHT22;685;47.196;11.880;2023-04-15T14:07:29;8.30;99.90
1383;DHT22;685;47.196;11.880;2023-04-15T14:09:56;8.20;99.90
1383;DHT22;685;47.196;11.880;2023-04-15T14:12:23;8.20;99.90
1383;DHT22;685;47.196;11.880;2023-04-15T14:14:50;8.10;99.90
1383;DHT22;685;47.196;11.880;2023-04-15T14:17:17;7.90;99.90
1383;DHT22;685;47.196;11.880;2023-04-15T14:19:44;7.80;99.90
1383;DHT22;685;47.196;11.880;2023-04-15T14:22:11;7.80;99.90
1383;DHT22;685;47.196;11.880;2023-04-15T14:24:39;7.70;99.90
1383;DHT22;685;47.196;11.880;2023-04-15T14:27:06;7.80;99.90
1383;DHT22;685;47.196;11.880;2023-04-15T14:29:35;7.70;99.90
1383;DHT22;685;47.196;11.880;2023-04-15T14:32:02;7.60;99.90
1383;DHT22;685;47.196;11.880;2023-04-15T14:34:29;7.70;99.90
1383;DHT22;685;47.196;11.880;2023-04-15T14:36:56;7.70;99.90
1383;DHT22;685;47.196;11.880;2023-04-15T14:39:23;7.80;99.90
1383;DHT22;685;47.196;11.880;2023-04-15T14:41:53;7.60;99.90
1383;DHT22;685;47.196;11.880;2023-04-15T14:44:23;7.60;99.90
1383;DHT22;685;47.196;11.880;2023-04-15T14:46:50;7.60;99.90
1383;DHT22;685;47.196;11.880;2023-04-15T14:49:17;7.70;99.90
1383;DHT22;685;47.196;11.880;2023-04-15T14:51:45;7.70;99.90
1383;DHT22;685;47.196;11.880;2023-04-15T14:54:12;7.70;99.90
1383;DHT22;685;47.196;11.880;2023-04-15T14:56:39;7.80;99.90
1383;DHT22;685;47.196;11.880;2023-04-15T14:59:07;7.90;99.90
1383;DHT22;685;47.196;11.880;2023-04-15T15:01:34;7.90;99.90
1383;DHT22;685;47.196;11.880;2023-04-15T15:04:01;7.80;99.90
1383;DHT22;685;47.196;11.880;2023-04-15T15:06:28;7.90;99.90
1383;DHT22;685;47.196;11.880;2023-04-15T15:08:56;7.80;99.90
1383;DHT22;685;47.196;11.880;2023-04-15T15:11:23;7.80;99.90
1383;DHT22;685;47.196;11.880;2023-04-15T15:13:50;7.80;99.90
1383;DHT22;685;47.196;11.880;2023-04-15T15:16:18;7.90;99.90
1383;DHT22;685;47.196;11.880;2023-04-15T15:18:45;7.90;99.90
1383;DHT22;685;47.196;11.880;2023-04-15T15:21:12;7.90;99.90
1383;DHT22;685;47.196;11.880;2023-04-15T15:23:39;7.90;99.90
1383;DHT22;685;47.196;11.880;2023-04-15T15:26:06;7.90;99.90
1383;DHT22;685;47.196;11.880;2023-04-15T15:28:33;8.00;99.90
1383;DHT22;685;47.196;11.880;2023-04-15T15:31:00;7.90;99.90
1383;DHT22;685;47.196;11.880;2023-04-15T15:33:29;7.90;99.90
1383;DHT22;685;47.196;11.880;2023-04-15T15:35:56;7.90;99.90
1383;DHT22;685;47.196;11.880;2023-04-15T15:38:23;7.90;99.90
1383;DHT22;685;47.196;11.880;2023-04-15T15:40:50;7.90;99.90
1383;DHT22;685;47.196;11.880;2023-04-15T15:43:17;7.90;99.90
1383;DHT22;685;47.196;11.880;2023-04-15T15:45:44;8.00;99.90
1383;DHT22;685;47.196;11.880;2023-04-15T15:48:11;8.00;99.90
1383;DHT22;685;47.196;11.880;2023-04-15T15:50:40;7.90;99.90
1383;DHT22;685;47.196;11.880;2023-04-15T15:53:06;8.00;99.90
1383;DHT22;685;47.196;11.880;2023-04-15T15:55:35;7.90;99.90
1383;DHT22;685;47.196;11.880;2023-04-15T15:58:02;7.80;99.90
1383;DHT22;685;47.196;11.880;2023-04-15T16:00:29;7.80;99.90
1383;DHT22;685;47.196;11.880;2023-04-15T16:02:56;7.80;99.90
1383;DHT22;685;47.196;11.880;2023-04-15T16:05:23;7.90;99.90
1383;DHT22;685;47.196;11.880;2023-04-15T16:07:51;7.90;99.90
1383;DHT22;685;47.196;11.880;2023-04-15T16:10:18;7.80;99.90
1383;DHT22;685;47.196;11.880;2023-04-15T16:12:45;7.80;99.90
1383;DHT22;685;47.196;11.880;2023-04-15T16:15:12;7.80;99.90
1383;DHT22;685;47.196;11.880;2023-04-15T16:17:39;7.70;99.90
1383;DHT22;685;47.196;11.880;2023-04-15T16:20:07;7.80;99.90
1383;DHT22;685;47.196;11.880;2023-04-15T16:22:34;7.70;99.90
1383;DHT22;685;47.196;11.880;2023-04-15T16:25:03;7.70;99.90